sensor_id;sensor_type;location;lat;lon;timestamp;temperature;humidity
68378;DHT22;55322;48.146;11.516;2023-05-07T00:00:43;11.68;95.17
68378;DHT22;55322;48.146;11.516;2023-05-07T00:03:08;11.68;95.08
68378;DHT22;55322;48.146;11.516;2023-05-07T00:05:33;11.58;95.62
68378;DHT22;55322;48.146;11.516;2023-05-07T00:07:58;11.53;95.42
68378;DHT22;55322;48.146;11.516;2023-05-07T00:10:24;11.45;95.48
68378;DHT22;55322;48.146;11.516;2023-05-07T00:12:50;11.43;95.61
68378;DHT22;55322;48.146;11.516;2023-05-07T00:15:15;11.38;95.81
68378;DHT22;55322;48.146;11.516;2023-05-07T00:17:41;11.38;95.78
68378;DHT22;55322;48.146;11.516;2023-05-07T00:20:06;11.35;95.99
68378;DHT22;55322;48.146;11.516;2023-05-07T00:22:32;11.40;95.82
68378;DHT22;55322;48.146;11.516;2023-05-07T00:24:58;11.38;95.61
68378;DHT22;55322;48.146;11.516;2023-05-07T00:27:24;11.41;95.58
68378;DHT22;55322;48.146;11.516;2023-05-07T00:29:50;11.41;95.56
68378;DHT22;55322;48.146;11.516;2023-05-07T00:32:15;11.41;95.65
68378;DHT22;55322;48.146;11.516;2023-05-07T00:34:40;11.40;95.92
68378;DHT22;55322;48.146;11.516;2023-05-07T00:37:06;11.35;96.31
68378;DHT22;55322;48.146;11.516;2023-05-07T00:39:33;11.35;96.35
68378;DHT22;55322;48.146;11.516;2023-05-07T00:41:58;11.33;96.40
68378;DHT22;55322;48.146;11.516;2023-05-07T00:44:24;11.34;96.32
68378;DHT22;55322;48.146;11.516;2023-05-07T00:46:50;11.38;96.16
68378;DHT22;55322;48.146;11.516;2023-05-07T00:49:15;11.41;96.06
68378;DHT22;55322;48.146;11.516;2023-05-07T00:51:41;11.37;95.98
68378;DHT22;55322;48.146;11.516;2023-05-07T00:54:07;11.30;96.25
68378;DHT22;55322;48.146;11.516;2023-05-07T00:56:33;11.30;96.45
68378;DHT22;55322;48.146;11.516;2023-05-07T00:58:58;11.33;96.17
68378;DHT22;55322;48.146;11.516;2023-05-07T01:01:24;11.35;96.04
68378;DHT22;55322;48.146;11.516;2023-05-07T01:03:49;11.33;96.25
68378;DHT22;55322;48.146;11.516;2023-05-07T01:06:15;11.40;96.10
68378;DHT22;55322;48.146;11.516;2023-05-07T01:08:42;11.38;96.02
68378;DHT22;55322;48.146;11.516;2023-05-07T01:11:08;11.31;96.13
68378;DHT22;55322;48.146;11.516;2023-05-07T01:13:35;11.31;96.22
68378;DHT22;55322;48.146;11.516;2023-05-07T01:16:02;11.35;96.08
68378;DHT22;55322;48.146;11.516;2023-05-07T01:18:28;11.35;96.11
68378;DHT22;55322;48.146;11.516;2023-05-07T01:20:57;11.33;96.20
68378;DHT22;55322;48.146;11.516;2023-05-07T01:23:23;11.31;96.50
68378;DHT22;55322;48.146;11.516;2023-05-07T01:25:53;11.33;96.49
68378;DHT22;55322;48.146;11.516;2023-05-07T01:28:18;11.35;96.41
68378;DHT22;55322;48.146;11.516;2023-05-07T01:30:49;11.40;96.27
68378;DHT22;55322;48.146;11.516;2023-05-07T01:33:19;11.34;96.29
68378;DHT22;55322;48.146;11.516;2023-05-07T01:35:48;11.34;96.57
68378;DHT22;55322;48.146;11.516;2023-05-07T01:38:15;11.38;96.53
68378;DHT22;55322;48.146;11.516;2023-05-07T01:40:41;11.40;96.70
68378;DHT22;55322;48.146;11.516;2023-05-07T01:43:07;11.40;96.56
68378;DHT22;55322;48.146;11.516;2023-05-07T01:45:34;11.38;96.48
68378;DHT22;55322;48.146;11.516;2023-05-07T01:47:59;11.41;96.39
68378;DHT22;55322;48.146;11.516;2023-05-07T01:50:25;11.35;96.43
68378;DHT22;55322;48.146;11.516;2023-05-07T01:52:51;11.34;96.54
68378;DHT22;55322;48.146;11.516;2023-05-07T01:55:17;11.24;96.73
68378;DHT22;55322;48.146;11.516;2023-05-07T01:57:42;11.26;97.01
68378;DHT22;55322;48.146;11.516;2023-05-07T02:00:08;11.28;96.82
68378;DHT22;55322;48.146;11.516;2023-05-07T02:02:34;11.27;96.66
68378;DHT22;55322;48.146;11.516;2023-05-07T02:05:00;11.31;96.61
68378;DHT22;55322;48.146;11.516;2023-05-07T02:07:26;11.30;96.59
68378;DHT22;55322;48.146;11.516;2023-05-07T02:09:52;11.26;96.78
68378;DHT22;55322;48.146;11.516;2023-05-07T02:12:17;11.28;96.92
68378;DHT22;55322;48.146;11.516;2023-05-07T02:14:42;11.30;96.70
68378;DHT22;55322;48.146;11.516;2023-05-07T02:17:08;11.20;97.09
68378;DHT22;55322;48.146;11.516;2023-05-07T02:19:33;11.19;97.15
68378;DHT22;55322;48.146;11.516;2023-05-07T02:21:59;11.26;96.93
68378;DHT22;55322;48.146;11.516;2023-05-07T02:24:24;11.23;96.83
68378;DHT22;55322;48.146;11.516;2023-05-07T02:26:50;11.23;96.88
68378;DHT22;55322;48.146;11.516;2023-05-07T02:29:15;11.26;96.91
68378;DHT22;55322;48.146;11.516;2023-05-07T02:31:40;11.26;96.93
68378;DHT22;55322;48.146;11.516;2023-05-07T02:34:06;11.23;96.74
68378;DHT22;55322;48.146;11.516;2023-05-07T02:36:31;11.23;96.70
68378;DHT22;55322;48.146;11.516;2023-05-07T02:38:56;11.17;96.75
68378;DHT22;55322;48.146;11.516;2023-05-07T02:41:22;11.19;97.29
68378;DHT22;55322;48.146;11.516;2023-05-07T02:43:47;11.14;97.42
68378;DHT22;55322;48.146;11.516;2023-05-07T02:46:12;11.09;97.43
68378;DHT22;55322;48.146;11.516;2023-05-07T02:48:38;11.07;97.52
68378;DHT22;55322;48.146;11.516;2023-05-07T02:51:04;11.12;97.42
68378;DHT22;55322;48.146;11.516;2023-05-07T02:53:31;11.14;97.29
68378;DHT22;55322;48.146;11.516;2023-05-07T02:55:57;11.14;97.25
68378;DHT22;55322;48.146;11.516;2023-05-07T02:58:22;11.07;97.09
68378;DHT22;55322;48.146;11.516;2023-05-07T03:00:48;11.13;97.12
68378;DHT22;55322;48.146;11.516;2023-05-07T03:03:14;11.13;97.12
68378;DHT22;55322;48.146;11.516;2023-05-07T03:05:40;11.16;97.00
68378;DHT22;55322;48.146;11.516;2023-05-07T03:08:05;11.07;97.07
68378;DHT22;55322;48.146;11.516;2023-05-07T03:10:30;11.10;96.98
68378;DHT22;55322;48.146;11.516;2023-05-07T03:12:56;11.09;97.27
68378;DHT22;55322;48.146;11.516;2023-05-07T03:15:21;11.09;97.48
68378;DHT22;55322;48.146;11.516;2023-05-07T03:17:50;11.10;97.36
68378;DHT22;55322;48.146;11.516;2023-05-07T03:20:15;11.07;97.42
68378;DHT22;55322;48.146;11.516;2023-05-07T03:22:41;10.99;97.42
68378;DHT22;55322;48.146;11.516;2023-05-07T03:25:06;10.97;97.36
68378;DHT22;55322;48.146;11.516;2023-05-07T03:27:32;10.93;97.48
68378;DHT22;55322;48.146;11.516;2023-05-07T03:29:57;10.89;97.59
68378;DHT22;55322;48.146;11.516;2023-05-07T03:32:22;10.92;97.53
68378;DHT22;55322;48.146;11.516;2023-05-07T03:34:48;10.90;97.53
68378;DHT22;55322;48.146;11.516;2023-05-07T03:37:13;10.84;97.62
68378;DHT22;55322;48.146;11.516;2023-05-07T03:39:38;10.79;97.55
68378;DHT22;55322;48.146;11.516;2023-05-07T03:42:04;10.79;97.55
68378;DHT22;55322;48.146;11.516;2023-05-07T03:44:29;10.80;97.45
68378;DHT22;55322;48.146;11.516;2023-05-07T03:46:55;10.82;97.31
68378;DHT22;55322;48.146;11.516;2023-05-07T03:49:20;10.79;97.18
68378;DHT22;55322;48.146;11.516;2023-05-07T03:51:46;10.73;97.36
68378;DHT22;55322;48.146;11.516;2023-05-07T03:54:11;10.68;97.48
68378;DHT22;55322;48.146;11.516;2023-05-07T03:56:36;10.59;97.63
68378;DHT22;55322;48.146;11.516;2023-05-07T03:59:02;10.65;97.42
68378;DHT22;55322;48.146;11.516;2023-05-07T04:01:27;10.63;97.27
68378;DHT22;55322;48.146;11.516;2023-05-07T04:03:53;10.62;97.27
68378;DHT22;55322;48.146;11.516;2023-05-07T04:06:18;10.63;97.17
68378;DHT22;55322;48.146;11.516;2023-05-07T04:08:43;10.69;97.17
68378;DHT22;55322;48.146;11.516;2023-05-07T04:11:09;10.68;97.12
68378;DHT22;55322;48.146;11.516;2023-05-07T04:13:34;10.68;97.22
68378;DHT22;55322;48.146;11.516;2023-05-07T04:16:02;10.72;97.49
68378;DHT22;55322;48.146;11.516;2023-05-07T04:18:27;10.77;97.32
68378;DHT22;55322;48.146;11.516;2023-05-07T04:20:53;10.80;97.28
68378;DHT22;55322;48.146;11.516;2023-05-07T04:23:18;10.83;97.15
68378;DHT22;55322;48.146;11.516;2023-05-07T04:25:43;10.84;97.27
68378;DHT22;55322;48.146;11.516;2023-05-07T04:28:08;10.90;97.11
68378;DHT22;55322;48.146;11.516;2023-05-07T04:30:34;10.89;97.08
68378;DHT22;55322;48.146;11.516;2023-05-07T04:32:59;10.89;97.34
68378;DHT22;55322;48.146;11.516;2023-05-07T04:35:25;10.90;97.30
68378;DHT22;55322;48.146;11.516;2023-05-07T04:37:50;10.95;97.20
68378;DHT22;55322;48.146;11.516;2023-05-07T04:40:15;11.00;97.04
68378;DHT22;55322;48.146;11.516;2023-05-07T04:42:41;11.04;96.94
68378;DHT22;55322;48.146;11.516;2023-05-07T04:45:06;11.09;96.92
68378;DHT22;55322;48.146;11.516;2023-05-07T04:47:33;11.10;96.92
68378;DHT22;55322;48.146;11.516;2023-05-07T04:49:59;11.10;96.83
68378;DHT22;55322;48.146;11.516;2023-05-07T04:52:24;11.10;96.84
68378;DHT22;55322;48.146;11.516;2023-05-07T04:54:50;11.23;96.75
68378;DHT22;55322;48.146;11.516;2023-05-07T04:57:15;11.37;96.65
68378;DHT22;55322;48.146;11.516;2023-05-07T04:59:42;11.44;96.23
68378;DHT22;55322;48.146;11.516;2023-05-07T05:02:09;11.53;96.18
68378;DHT22;55322;48.146;11.516;2023-05-07T05:04:34;11.63;95.90
68378;DHT22;55322;48.146;11.516;2023-05-07T05:07:00;11.74;95.98
68378;DHT22;55322;48.146;11.516;2023-05-07T05:09:25;11.81;95.85
68378;DHT22;55322;48.146;11.516;2023-05-07T05:11:50;11.87;95.79
68378;DHT22;55322;48.146;11.516;2023-05-07T05:14:16;11.92;95.72
68378;DHT22;55322;48.146;11.516;2023-05-07T05:16:41;11.94;95.37
68378;DHT22;55322;48.146;11.516;2023-05-07T05:19:06;12.01;95.22
68378;DHT22;55322;48.146;11.516;2023-05-07T05:21:32;12.06;95.30
68378;DHT22;55322;48.146;11.516;2023-05-07T05:23:58;12.22;95.24
68378;DHT22;55322;48.146;11.516;2023-05-07T05:26:23;12.45;94.95
68378;DHT22;55322;48.146;11.516;2023-05-07T05:28:49;12.52;94.47
68378;DHT22;55322;48.146;11.516;2023-05-07T05:31:14;12.48;93.62
68378;DHT22;55322;48.146;11.516;2023-05-07T05:33:40;12.52;93.54
68378;DHT22;55322;48.146;11.516;2023-05-07T05:36:06;12.53;94.16
68378;DHT22;55322;48.146;11.516;2023-05-07T05:38:31;12.67;93.57
68378;DHT22;55322;48.146;11.516;2023-05-07T05:40:57;12.89;93.62
68378;DHT22;55322;48.146;11.516;2023-05-07T05:43:22;13.04;93.27
68378;DHT22;55322;48.146;11.516;2023-05-07T05:45:47;13.21;92.11
68378;DHT22;55322;48.146;11.516;2023-05-07T05:48:13;13.54;90.65
68378;DHT22;55322;48.146;11.516;2023-05-07T05:50:38;14.15;87.68
68378;DHT22;55322;48.146;11.516;2023-05-07T05:53:03;14.42;84.14
68378;DHT22;55322;48.146;11.516;2023-05-07T05:55:29;14.94;83.41
68378;DHT22;55322;48.146;11.516;2023-05-07T05:57:54;15.70;81.62
68378;DHT22;55322;48.146;11.516;2023-05-07T06:00:20;17.15;79.83
68378;DHT22;55322;48.146;11.516;2023-05-07T06:02:47;19.01;67.92
68378;DHT22;55322;48.146;11.516;2023-05-07T06:05:13;20.14;66.05
68378;DHT22;55322;48.146;11.516;2023-05-07T06:07:38;21.63;59.84
68378;DHT22;55322;48.146;11.516;2023-05-07T06:10:04;22.42;56.74
68378;DHT22;55322;48.146;11.516;2023-05-07T06:12:29;23.42;53.48
68378;DHT22;55322;48.146;11.516;2023-05-07T06:14:55;22.38;56.69
68378;DHT22;55322;48.146;11.516;2023-05-07T06:17:20;22.71;56.23
68378;DHT22;55322;48.146;11.516;2023-05-07T06:19:45;22.32;54.89
68378;DHT22;55322;48.146;11.516;2023-05-07T06:22:11;23.40;52.61
68378;DHT22;55322;48.146;11.516;2023-05-07T06:24:36;23.46;55.40
68378;DHT22;55322;48.146;11.516;2023-05-07T06:27:01;24.11;53.00
68378;DHT22;55322;48.146;11.516;2023-05-07T06:29:27;24.17;50.87
68378;DHT22;55322;48.146;11.516;2023-05-07T06:31:53;24.41;50.37
68378;DHT22;55322;48.146;11.516;2023-05-07T06:34:18;25.33;47.45
68378;DHT22;55322;48.146;11.516;2023-05-07T06:36:43;24.59;47.70
68378;DHT22;55322;48.146;11.516;2023-05-07T06:39:09;23.67;53.77
68378;DHT22;55322;48.146;11.516;2023-05-07T06:41:34;23.33;52.01
68378;DHT22;55322;48.146;11.516;2023-05-07T06:44:01;23.81;50.14
68378;DHT22;55322;48.146;11.516;2023-05-07T06:46:27;24.36;50.02
68378;DHT22;55322;48.146;11.516;2023-05-07T06:48:52;25.59;46.38
68378;DHT22;55322;48.146;11.516;2023-05-07T06:51:18;26.14;45.75
68378;DHT22;55322;48.146;11.516;2023-05-07T06:53:43;25.30;46.66
68378;DHT22;55322;48.146;11.516;2023-05-07T06:56:08;25.05;49.71
68378;DHT22;55322;48.146;11.516;2023-05-07T06:58:34;23.97;49.37
68378;DHT22;55322;48.146;11.516;2023-05-07T07:00:59;24.08;50.22
68378;DHT22;55322;48.146;11.516;2023-05-07T07:03:24;24.25;52.83
68378;DHT22;55322;48.146;11.516;2023-05-07T07:05:53;23.57;50.31
68378;DHT22;55322;48.146;11.516;2023-05-07T07:08:19;22.59;56.71
68378;DHT22;55322;48.146;11.516;2023-05-07T07:10:46;22.49;54.13
68378;DHT22;55322;48.146;11.516;2023-05-07T07:13:12;22.05;53.72
68378;DHT22;55322;48.146;11.516;2023-05-07T07:15:37;22.08;55.63
68378;DHT22;55322;48.146;11.516;2023-05-07T07:18:03;21.40;55.60
68378;DHT22;55322;48.146;11.516;2023-05-07T07:20:29;21.43;57.84
68378;DHT22;55322;48.146;11.516;2023-05-07T07:22:54;21.40;58.36
68378;DHT22;55322;48.146;11.516;2023-05-07T07:25:19;21.12;57.03
68378;DHT22;55322;48.146;11.516;2023-05-07T07:27:45;21.29;56.77
68378;DHT22;55322;48.146;11.516;2023-05-07T07:30:10;21.46;57.04
68378;DHT22;55322;48.146;11.516;2023-05-07T07:32:36;21.02;56.91
68378;DHT22;55322;48.146;11.516;2023-05-07T07:35:01;21.35;57.08
68378;DHT22;55322;48.146;11.516;2023-05-07T07:37:27;21.60;57.83
68378;DHT22;55322;48.146;11.516;2023-05-07T07:39:52;21.70;55.36
68378;DHT22;55322;48.146;11.516;2023-05-07T07:42:18;21.84;60.06
68378;DHT22;55322;48.146;11.516;2023-05-07T07:44:43;21.98;59.11
68378;DHT22;55322;48.146;11.516;2023-05-07T07:47:09;21.76;55.15
68378;DHT22;55322;48.146;11.516;2023-05-07T07:49:35;21.81;56.37
68378;DHT22;55322;48.146;11.516;2023-05-07T07:52:01;21.76;59.43
68378;DHT22;55322;48.146;11.516;2023-05-07T07:54:26;21.94;58.21
68378;DHT22;55322;48.146;11.516;2023-05-07T07:56:51;22.18;55.05
68378;DHT22;55322;48.146;11.516;2023-05-07T07:59:17;22.40;56.14
68378;DHT22;55322;48.146;11.516;2023-05-07T08:01:44;22.21;54.36
68378;DHT22;55322;48.146;11.516;2023-05-07T08:04:10;22.21;57.42
68378;DHT22;55322;48.146;11.516;2023-05-07T08:06:35;22.40;57.18
68378;DHT22;55322;48.146;11.516;2023-05-07T08:09:00;22.56;56.64
68378;DHT22;55322;48.146;11.516;2023-05-07T08:11:26;22.73;54.15
68378;DHT22;55322;48.146;11.516;2023-05-07T08:13:52;22.64;57.47
68378;DHT22;55322;48.146;11.516;2023-05-07T08:16:17;22.40;56.38
68378;DHT22;55322;48.146;11.516;2023-05-07T08:18:42;22.64;57.36
68378;DHT22;55322;48.146;11.516;2023-05-07T08:21:08;22.98;55.58
68378;DHT22;55322;48.146;11.516;2023-05-07T08:23:33;22.96;52.49
68378;DHT22;55322;48.146;11.516;2023-05-07T08:25:59;22.85;54.15
68378;DHT22;55322;48.146;11.516;2023-05-07T08:28:25;22.55;53.30
68378;DHT22;55322;48.146;11.516;2023-05-07T08:30:50;22.27;53.97
68378;DHT22;55322;48.146;11.516;2023-05-07T08:33:16;23.00;58.87
68378;DHT22;55322;48.146;11.516;2023-05-07T08:35:41;23.13;55.96
68378;DHT22;55322;48.146;11.516;2023-05-07T08:38:06;23.00;57.57
68378;DHT22;55322;48.146;11.516;2023-05-07T08:40:38;23.37;53.32
68378;DHT22;55322;48.146;11.516;2023-05-07T08:43:06;23.46;56.37
68378;DHT22;55322;48.146;11.516;2023-05-07T08:45:33;23.30;53.63
68378;DHT22;55322;48.146;11.516;2023-05-07T08:47:59;23.88;53.14
68378;DHT22;55322;48.146;11.516;2023-05-07T08:50:26;24.04;49.48
68378;DHT22;55322;48.146;11.516;2023-05-07T08:52:52;24.42;49.61
68378;DHT22;55322;48.146;11.516;2023-05-07T08:55:17;23.71;49.04
68378;DHT22;55322;48.146;11.516;2023-05-07T08:57:43;24.29;52.98
68378;DHT22;55322;48.146;11.516;2023-05-07T09:00:09;24.18;50.51
68378;DHT22;55322;48.146;11.516;2023-05-07T09:02:35;23.34;54.82
68378;DHT22;55322;48.146;11.516;2023-05-07T09:05:01;23.77;52.31
68378;DHT22;55322;48.146;11.516;2023-05-07T09:07:27;23.34;51.68
68378;DHT22;55322;48.146;11.516;2023-05-07T09:09:52;23.36;51.78
68378;DHT22;55322;48.146;11.516;2023-05-07T09:12:20;23.67;52.09
68378;DHT22;55322;48.146;11.516;2023-05-07T09:14:46;23.19;54.51
68378;DHT22;55322;48.146;11.516;2023-05-07T09:17:28;23.81;51.16
68378;DHT22;55322;48.146;11.516;2023-05-07T09:19:53;23.70;56.23
68378;DHT22;55322;48.146;11.516;2023-05-07T09:22:18;23.50;54.62
68378;DHT22;55322;48.146;11.516;2023-05-07T09:24:48;23.94;55.45
68378;DHT22;55322;48.146;11.516;2023-05-07T09:27:14;24.25;52.19
68378;DHT22;55322;48.146;11.516;2023-05-07T09:29:40;23.40;54.91
68378;DHT22;55322;48.146;11.516;2023-05-07T09:32:06;23.39;55.04
68378;DHT22;55322;48.146;11.516;2023-05-07T09:34:32;23.22;52.69
68378;DHT22;55322;48.146;11.516;2023-05-07T09:37:02;24.20;52.94
68378;DHT22;55322;48.146;11.516;2023-05-07T09:39:41;24.07;45.75
68378;DHT22;55322;48.146;11.516;2023-05-07T09:42:07;23.70;50.17
68378;DHT22;55322;48.146;11.516;2023-05-07T09:44:34;23.91;52.28
68378;DHT22;55322;48.146;11.516;2023-05-07T09:47:00;24.08;46.36
68378;DHT22;55322;48.146;11.516;2023-05-07T09:49:28;23.73;51.97
68378;DHT22;55322;48.146;11.516;2023-05-07T09:52:00;23.78;53.22
68378;DHT22;55322;48.146;11.516;2023-05-07T09:54:26;23.57;52.58
68378;DHT22;55322;48.146;11.516;2023-05-07T09:56:52;22.96;54.61
68378;DHT22;55322;48.146;11.516;2023-05-07T09:59:21;22.54;51.87
68378;DHT22;55322;48.146;11.516;2023-05-07T10:01:48;22.69;53.24
68378;DHT22;55322;48.146;11.516;2023-05-07T10:04:14;23.10;48.00
68378;DHT22;55322;48.146;11.516;2023-05-07T10:06:40;23.71;46.62
68378;DHT22;55322;48.146;11.516;2023-05-07T10:09:06;23.23;47.05
68378;DHT22;55322;48.146;11.516;2023-05-07T10:11:35;23.36;51.68
68378;DHT22;55322;48.146;11.516;2023-05-07T10:14:02;22.69;50.64
68378;DHT22;55322;48.146;11.516;2023-05-07T10:16:32;23.05;52.14
68378;DHT22;55322;48.146;11.516;2023-05-07T10:19:04;22.82;50.10
68378;DHT22;55322;48.146;11.516;2023-05-07T10:21:30;23.05;51.96
68378;DHT22;55322;48.146;11.516;2023-05-07T10:24:05;22.78;52.30
68378;DHT22;55322;48.146;11.516;2023-05-07T10:26:35;23.07;52.99
68378;DHT22;55322;48.146;11.516;2023-05-07T10:29:11;22.94;53.05
68378;DHT22;55322;48.146;11.516;2023-05-07T10:31:42;22.78;52.91
68378;DHT22;55322;48.146;11.516;2023-05-07T10:34:13;22.58;52.96
68378;DHT22;55322;48.146;11.516;2023-05-07T10:36:39;21.93;54.51
68378;DHT22;55322;48.146;11.516;2023-05-07T10:39:05;21.81;54.11
68378;DHT22;55322;48.146;11.516;2023-05-07T10:41:31;21.74;55.33
68378;DHT22;55322;48.146;11.516;2023-05-07T10:43:57;22.32;51.34
68378;DHT22;55322;48.146;11.516;2023-05-07T10:46:22;23.30;50.43
68378;DHT22;55322;48.146;11.516;2023-05-07T10:51:30;22.92;51.10
68378;DHT22;55322;48.146;11.516;2023-05-07T10:56:37;22.84;51.41
68378;DHT22;55322;48.146;11.516;2023-05-07T11:01:50;22.62;48.94
68378;DHT22;55322;48.146;11.516;2023-05-07T11:04:17;22.82;54.36
68378;DHT22;55322;48.146;11.516;2023-05-07T11:15:13;22.35;53.60
68378;DHT22;55322;48.146;11.516;2023-05-07T11:17:57;22.20;52.42
68378;DHT22;55322;48.146;11.516;2023-05-07T11:26:08;22.79;49.86
68378;DHT22;55322;48.146;11.516;2023-05-07T11:28:42;22.72;51.50
68378;DHT22;55322;48.146;11.516;2023-05-07T11:31:09;23.17;51.56
68378;DHT22;55322;48.146;11.516;2023-05-07T11:33:35;23.31;49.57
68378;DHT22;55322;48.146;11.516;2023-05-07T11:36:02;23.02;54.81
68378;DHT22;55322;48.146;11.516;2023-05-07T11:38:29;22.81;52.02
68378;DHT22;55322;48.146;11.516;2023-05-07T11:40:59;22.84;48.51
68378;DHT22;55322;48.146;11.516;2023-05-07T11:43:29;22.44;51.72
68378;DHT22;55322;48.146;11.516;2023-05-07T11:46:05;22.52;53.38
68378;DHT22;55322;48.146;11.516;2023-05-07T11:48:30;22.42;49.38
68378;DHT22;55322;48.146;11.516;2023-05-07T11:51:04;22.96;50.66
68378;DHT22;55322;48.146;11.516;2023-05-07T11:53:41;23.13;50.00
68378;DHT22;55322;48.146;11.516;2023-05-07T11:56:12;23.06;54.69
68378;DHT22;55322;48.146;11.516;2023-05-07T11:58:38;23.03;50.54
68378;DHT22;55322;48.146;11.516;2023-05-07T12:01:03;23.42;51.07
68378;DHT22;55322;48.146;11.516;2023-05-07T12:03:29;23.16;53.23
68378;DHT22;55322;48.146;11.516;2023-05-07T12:05:54;23.02;51.55
68378;DHT22;55322;48.146;11.516;2023-05-07T12:08:21;22.96;47.85
68378;DHT22;55322;48.146;11.516;2023-05-07T12:10:50;22.81;51.61
68378;DHT22;55322;48.146;11.516;2023-05-07T12:13:21;22.68;49.10
68378;DHT22;55322;48.146;11.516;2023-05-07T12:15:51;22.35;54.22
68378;DHT22;55322;48.146;11.516;2023-05-07T12:18:16;22.48;48.11
68378;DHT22;55322;48.146;11.516;2023-05-07T12:20:41;22.65;52.16
68378;DHT22;55322;48.146;11.516;2023-05-07T12:23:07;22.34;52.00
68378;DHT22;55322;48.146;11.516;2023-05-07T12:25:37;22.48;54.37
68378;DHT22;55322;48.146;11.516;2023-05-07T12:28:03;22.47;52.99
68378;DHT22;55322;48.146;11.516;2023-05-07T12:30:39;22.85;50.11
68378;DHT22;55322;48.146;11.516;2023-05-07T12:33:04;23.02;48.77
68378;DHT22;55322;48.146;11.516;2023-05-07T12:35:31;23.12;48.31
68378;DHT22;55322;48.146;11.516;2023-05-07T12:37:57;22.73;50.44
68378;DHT22;55322;48.146;11.516;2023-05-07T12:40:24;22.69;49.33
68378;DHT22;55322;48.146;11.516;2023-05-07T12:42:53;22.66;49.54
68378;DHT22;55322;48.146;11.516;2023-05-07T12:45:21;22.81;49.72
68378;DHT22;55322;48.146;11.516;2023-05-07T12:47:47;22.91;48.53
68378;DHT22;55322;48.146;11.516;2023-05-07T12:50:13;22.51;51.91
68378;DHT22;55322;48.146;11.516;2023-05-07T12:52:39;22.37;51.70
68378;DHT22;55322;48.146;11.516;2023-05-07T12:55:06;22.48;53.19
68378;DHT22;55322;48.146;11.516;2023-05-07T12:57:38;22.55;47.85
68378;DHT22;55322;48.146;11.516;2023-05-07T13:00:05;23.02;52.14
68378;DHT22;55322;48.146;11.516;2023-05-07T13:02:34;22.86;46.26
68378;DHT22;55322;48.146;11.516;2023-05-07T13:05:00;22.66;47.75
68378;DHT22;55322;48.146;11.516;2023-05-07T13:07:26;22.54;46.09
68378;DHT22;55322;48.146;11.516;2023-05-07T13:09:51;22.73;49.49
68378;DHT22;55322;48.146;11.516;2023-05-07T13:12:16;22.20;51.84
68378;DHT22;55322;48.146;11.516;2023-05-07T13:14:41;22.17;47.49
68378;DHT22;55322;48.146;11.516;2023-05-07T13:17:07;22.40;46.78
68378;DHT22;55322;48.146;11.516;2023-05-07T13:19:32;22.34;47.41
68378;DHT22;55322;48.146;11.516;2023-05-07T13:21:57;22.40;50.17
68378;DHT22;55322;48.146;11.516;2023-05-07T13:24:23;22.24;46.75
68378;DHT22;55322;48.146;11.516;2023-05-07T13:26:48;22.22;45.78
68378;DHT22;55322;48.146;11.516;2023-05-07T13:29:13;22.47;48.14
68378;DHT22;55322;48.146;11.516;2023-05-07T13:31:38;22.28;50.99
68378;DHT22;55322;48.146;11.516;2023-05-07T13:34:07;22.28;46.00
68378;DHT22;55322;48.146;11.516;2023-05-07T13:36:33;22.21;52.14
68378;DHT22;55322;48.146;11.516;2023-05-07T13:39:02;22.37;46.55
68378;DHT22;55322;48.146;11.516;2023-05-07T13:41:28;22.32;49.30
68378;DHT22;55322;48.146;11.516;2023-05-07T13:43:54;22.32;46.72
68378;DHT22;55322;48.146;11.516;2023-05-07T13:46:19;22.10;47.53
68378;DHT22;55322;48.146;11.516;2023-05-07T13:48:45;22.27;46.43
68378;DHT22;55322;48.146;11.516;2023-05-07T13:51:11;22.44;47.14
68378;DHT22;55322;48.146;11.516;2023-05-07T13:53:36;22.44;46.96
68378;DHT22;55322;48.146;11.516;2023-05-07T13:56:02;22.32;47.01
68378;DHT22;55322;48.146;11.516;2023-05-07T13:58:29;22.42;46.82
68378;DHT22;55322;48.146;11.516;2023-05-07T14:00:55;22.42;46.21
68378;DHT22;55322;48.146;11.516;2023-05-07T14:03:20;22.28;50.41
68378;DHT22;55322;48.146;11.516;2023-05-07T14:05:45;22.07;52.85
68378;DHT22;55322;48.146;11.516;2023-05-07T14:08:11;22.35;50.52
68378;DHT22;55322;48.146;11.516;2023-05-07T14:10:37;22.20;47.64
68378;DHT22;55322;48.146;11.516;2023-05-07T14:13:03;21.79;51.99
68378;DHT22;55322;48.146;11.516;2023-05-07T14:15:28;21.76;54.35
68378;DHT22;55322;48.146;11.516;2023-05-07T14:17:53;21.49;51.33
68378;DHT22;55322;48.146;11.516;2023-05-07T14:20:20;21.46;51.16
68378;DHT22;55322;48.146;11.516;2023-05-07T14:22:45;21.56;51.88
68378;DHT22;55322;48.146;11.516;2023-05-07T14:25:10;21.26;55.23
68378;DHT22;55322;48.146;11.516;2023-05-07T14:27:36;21.15;55.19
68378;DHT22;55322;48.146;11.516;2023-05-07T14:30:01;21.02;55.86
68378;DHT22;55322;48.146;11.516;2023-05-07T14:32:27;21.08;54.11
68378;DHT22;55322;48.146;11.516;2023-05-07T14:34:52;20.94;54.08
68378;DHT22;55322;48.146;11.516;2023-05-07T14:37:17;21.02;52.23
68378;DHT22;55322;48.146;11.516;2023-05-07T14:39:44;21.03;55.49
68378;DHT22;55322;48.146;11.516;2023-05-07T14:42:10;21.06;55.03
68378;DHT22;55322;48.146;11.516;2023-05-07T14:44:36;21.05;58.96
68378;DHT22;55322;48.146;11.516;2023-05-07T14:47:01;21.06;58.58
68378;DHT22;55322;48.146;11.516;2023-05-07T14:49:27;21.02;58.44
68378;DHT22;55322;48.146;11.516;2023-05-07T14:51:53;20.96;59.76
68378;DHT22;55322;48.146;11.516;2023-05-07T14:54:18;20.99;58.05
68378;DHT22;55322;48.146;11.516;2023-05-07T14:56:44;20.89;56.69
68378;DHT22;55322;48.146;11.516;2023-05-07T14:59:09;20.69;57.12
68378;DHT22;55322;48.146;11.516;2023-05-07T15:01:35;20.54;61.09
68378;DHT22;55322;48.146;11.516;2023-05-07T15:04:03;20.45;57.91
68378;DHT22;55322;48.146;11.516;2023-05-07T15:06:29;20.55;54.12
68378;DHT22;55322;48.146;11.516;2023-05-07T15:08:54;20.30;58.64
68378;DHT22;55322;48.146;11.516;2023-05-07T15:11:20;20.25;61.30
68378;DHT22;55322;48.146;11.516;2023-05-07T15:13:45;20.30;58.56
68378;DHT22;55322;48.146;11.516;2023-05-07T15:16:10;20.45;56.24
68378;DHT22;55322;48.146;11.516;2023-05-07T15:18:35;20.40;60.83
68378;DHT22;55322;48.146;11.516;2023-05-07T15:21:01;20.43;58.84
68378;DHT22;55322;48.146;11.516;2023-05-07T15:23:27;20.25;61.97
68378;DHT22;55322;48.146;11.516;2023-05-07T15:25:52;20.34;63.38
68378;DHT22;55322;48.146;11.516;2023-05-07T15:28:18;20.20;59.55
68378;DHT22;55322;48.146;11.516;2023-05-07T15:30:44;20.20;59.52